Latest Weather Observations for Jimna

IDQ60801

Issued at 1:02 pm EST Sunday 29 March 2015 (issued every 30 minutes, with the page automatically refreshed every 10 minutes)

About weather observations | Map of weather stations | Latest weather observations for QLD | Other Formats
Station Details ID: 040651 Name: JIMNA FORESTRY Lat: -26.66 Lon: 152.46 Height: 523.0 m
Data from the previous 72 hours. | See also: Recent months at Jimna
Date/Time
EST
Temp
°C
App
Temp
°C
Dew
Point
Rel
Hum
%
Delta-T
°C
Wind Press
QNH
hPa
Press
MSL
hPa
Rain
since 9 am
mm
Dir
 
Spd
km/h
Gust
km/h
Spd
kts
Gust
kts
29/01:00pm 23.3 - 16.4 65 4.3 - - - - - - - 0.0
29/12:30pm 23.3 - 15.9 63 4.6 - - - - - - - 0.0
29/12:00pm 24.7 - 16.4 60 5.2 - - - - - - - 0.0
29/11:30am 22.9 - 15.2 62 4.7 - - - - - - - 0.0
29/11:00am 22.7 - 16.3 67 4.0 - - - - - - - 0.0
29/10:30am 22.6 - 15.4 64 4.4 - - - - - - - 0.0
29/10:00am 23.0 - 15.3 62 4.7 - - - - - - - 0.0
29/09:30am 22.9 - 16.2 66 4.2 - - - - - - - 0.0
29/09:00am 21.8 - 15.4 67 3.9 - - - - - - - 0.0
29/08:30am 21.5 - 16.0 71 3.4 - - - - - - - 0.0
29/08:00am 20.1 - 16.1 78 2.5 - - - - - - - 0.0
29/07:30am 19.1 - 16.1 83 1.8 - - - - - - - 0.0
29/07:00am 18.2 - 16.2 88 1.2 - - - - - - - 0.0
29/06:30am 16.8 - 15.2 90 1.0 - - - - - - - 0.0
29/06:00am 16.5 - 14.7 89 1.1 - - - - - - - 0.0
29/05:30am 16.6 - 14.8 89 1.1 - - - - - - - 0.0
29/05:00am 16.7 - 14.5 87 1.3 - - - - - - - 0.0
29/04:30am 17.2 - 14.8 86 1.4 - - - - - - - 0.0
29/04:00am 17.5 - 15.0 85 1.5 - - - - - - - 0.0
29/03:30am 17.8 - 15.1 84 1.6 - - - - - - - 0.0
29/03:00am 17.7 - 15.1 85 1.6 - - - - - - - 0.0
29/02:30am 17.6 - 14.9 84 1.6 - - - - - - - 0.0
29/02:00am 17.3 - 14.4 83 1.7 - - - - - - - 0.0
29/01:30am 18.1 - 14.4 79 2.2 - - - - - - - 0.0
29/01:00am 18.5 - 14.8 79 2.2 - - - - - - - 0.0
29/12:30am 18.2 - 14.7 80 2.1 - - - - - - - 0.0
29/12:00am 18.6 - 14.9 79 2.2 - - - - - - - 0.0
 
Date/Time
EST
Temp
°C
App
Temp
°C
Dew
Point
Rel
Hum
%
Delta-T
°C
Wind Press
QNH
hPa
Press
MSL
hPa
Rain
since 9 am
mm
Dir
 
Spd
km/h
Gust
km/h
Spd
kts
Gust
kts
28/11:30pm 18.6 - 14.9 79 2.2 - - - - - - - 0.0
28/11:00pm 18.8 - 15.7 82 1.9 - - - - - - - 0.0
28/10:30pm 18.9 - 16.1 84 1.7 - - - - - - - 0.0
28/10:00pm 18.9 - 16.5 86 1.5 - - - - - - - 0.0
28/09:30pm 19.0 - 16.4 85 1.6 - - - - - - - 0.0
28/09:00pm 19.1 - 16.3 84 1.7 - - - - - - - 0.0
28/08:30pm 19.3 - 16.3 83 1.8 - - - - - - - 0.0
28/08:00pm 19.5 - 16.3 82 2.0 - - - - - - - 0.0
28/07:30pm 19.7 - 16.3 81 2.1 - - - - - - - 0.0
28/07:00pm 20.0 - 16.6 81 2.1 - - - - - - - 0.0
28/06:30pm 20.2 - 16.4 79 2.3 - - - - - - - 0.0
28/06:00pm 20.6 - 16.4 77 2.6 - - - - - - - 0.0
28/05:30pm 21.2 - 16.4 74 3.0 - - - - - - - 0.0
28/05:00pm 21.8 - 16.5 72 3.3 - - - - - - - 0.0
28/04:30pm 22.6 - 16.9 70 3.6 - - - - - - - 0.0
28/04:00pm 23.0 - 17.0 69 3.8 - - - - - - - 0.0
28/03:30pm 24.0 - 17.7 68 4.0 - - - - - - - 0.0
28/03:00pm 23.9 - 17.2 66 4.2 - - - - - - - 0.0
28/02:30pm 22.6 - 17.1 71 3.5 - - - - - - - 0.0
28/02:00pm 23.3 - 17.5 70 3.7 - - - - - - - 0.0
28/01:30pm 25.4 - 17.8 62 4.9 - - - - - - - 0.0
28/01:00pm 25.1 - 18.1 65 4.5 - - - - - - - 0.0
28/12:30pm 25.6 - 18.8 66 4.4 - - - - - - - 0.0
28/12:00pm 25.1 - 18.8 68 4.1 - - - - - - - 0.0
28/11:30am 25.2 - 19.1 69 4.0 - - - - - - - 0.0
28/11:00am 24.1 - 18.1 69 3.8 - - - - - - - 0.0
28/10:30am 24.6 - 18.3 68 4.1 - - - - - - - 0.0
28/10:00am 24.4 - 18.8 71 3.6 - - - - - - - 0.0
28/09:30am 23.7 - 18.6 73 3.3 - - - - - - - 0.0
28/09:00am 23.4 - 19.1 77 2.8 - - - - - - - 0.4
28/08:30am 22.1 - 18.1 78 2.5 - - - - - - - 0.4
28/08:00am 21.2 - 17.8 81 2.1 - - - - - - - 0.4
28/07:30am 19.5 - 17.5 88 1.3 - - - - - - - 0.4
28/07:00am 17.9 - - - - - - - - - - - 0.4
28/06:30am 16.6 - 15.8 95 0.5 - - - - - - - 0.4
28/06:00am 16.8 - 16.0 95 0.5 - - - - - - - 0.4
28/05:30am 17.0 - 16.2 95 0.5 - - - - - - - 0.4
28/05:00am 17.1 - 16.3 95 0.5 - - - - - - - 0.4
28/04:30am 17.1 - 16.3 95 0.5 - - - - - - - 0.4
28/04:00am 16.8 - 15.3 91 0.9 - - - - - - - 0.4
28/03:30am 17.0 - 15.3 90 1.0 - - - - - - - 0.4
28/03:00am 17.4 - 15.9 91 0.9 - - - - - - - 0.4
28/02:30am 17.5 - 16.0 91 0.9 - - - - - - - 0.4
28/02:00am 17.7 - 16.0 90 1.0 - - - - - - - 0.4
28/01:30am 18.2 - 16.7 91 0.9 - - - - - - - 0.4
28/01:00am 18.6 - 17.1 91 0.9 - - - - - - - 0.4
28/12:30am 18.9 - 17.4 91 0.9 - - - - - - - 0.4
28/12:00am 19.3 - 17.8 91 0.9 - - - - - - - 0.4
 
Date/Time
EST
Temp
°C
App
Temp
°C
Dew
Point
Rel
Hum
%
Delta-T
°C
Wind Press
QNH
hPa
Press
MSL
hPa
Rain
since 9 am
mm
Dir
 
Spd
km/h
Gust
km/h
Spd
kts
Gust
kts
27/11:30pm 19.5 - 18.0 91 0.9 - - - - - - - 0.4
27/11:00pm 19.5 - 17.8 90 1.1 - - - - - - - 0.4
27/10:30pm 19.8 - 17.8 88 1.3 - - - - - - - 0.4
27/10:00pm 20.1 - 18.2 89 1.2 - - - - - - - 0.4
27/09:30pm 20.2 - 18.1 88 1.3 - - - - - - - 0.4
27/09:00pm 20.5 - 18.1 86 1.5 - - - - - - - 0.4
27/08:30pm 20.8 - 18.4 86 1.5 - - - - - - - 0.4
27/08:00pm 21.1 - 18.5 85 1.7 - - - - - - - 0.4
27/07:30pm 21.6 - 18.6 83 1.9 - - - - - - - 0.4
27/07:00pm 21.3 - 16.5 74 3.0 - - - - - - - 0.4
27/06:30pm 22.3 - 15.4 65 4.2 - - - - - - - 0.4
27/06:00pm 22.7 - 14.0 58 5.2 - - - - - - - 0.4
27/05:30pm 23.3 - 13.5 54 5.8 - - - - - - - 0.4
27/05:00pm 24.5 - 14.3 53 6.2 - - - - - - - 0.4
27/04:30pm 27.2 - 11.7 38 9.1 - - - - - - - 0.4
27/04:00pm 28.4 - 16.3 47 7.7 - - - - - - - 0.4
27/03:30pm 27.9 - 17.1 51 6.9 - - - - - - - 0.4
27/03:00pm 28.1 - 16.7 50 7.3 - - - - - - - 0.4
27/02:30pm 28.3 - 17.8 53 6.8 - - - - - - - 0.4
27/02:00pm 27.7 - 17.2 52 6.7 - - - - - - - 0.4
27/01:30pm 27.4 - 16.4 51 7.0 - - - - - - - 0.4
27/01:00pm 27.7 - 15.4 47 7.7 - - - - - - - 0.4
27/12:30pm 27.3 - 12.5 40 8.8 - - - - - - - 0.4
27/12:00pm 27.4 - 13.0 41 8.6 - - - - - - - 0.4
27/11:30am 26.6 - 13.3 43 8.0 - - - - - - - 0.4
27/11:00am 25.9 - 12.4 43 8.0 - - - - - - - 0.4
27/10:30am 25.4 - 17.1 60 5.3 - - - - - - - 0.4
27/10:00am 25.1 - 19.0 69 4.0 - - - - - - - 0.4
27/09:30am 24.3 - 18.5 70 3.7 - - - - - - - 0.4
27/09:00am 23.7 - 19.0 75 3.1 - - - - - - - 0.8
27/08:30am 22.6 - 19.4 82 2.1 - - - - - - - 0.8
27/08:00am 21.7 - 19.6 88 1.4 - - - - - - - 0.8
27/07:30am 21.0 - 19.5 91 1.0 - - - - - - - 0.8
27/07:00am 20.2 - 20.2 100 0.0 - - - - - - - 0.8
27/06:30am 19.4 - 18.7 96 0.4 - - - - - - - 0.8
27/06:00am 19.4 - 18.1 92 0.8 - - - - - - - 0.8
27/05:30am 19.4 - 17.9 91 0.9 - - - - - - - 0.8
27/05:00am 19.7 - 18.2 91 0.9 - - - - - - - 0.8
27/04:30am 20.1 - 18.8 92 0.8 - - - - - - - 0.8
27/04:00am 20.2 - 19.4 95 0.5 - - - - - - - 0.8
27/03:30am 20.2 - 18.9 92 0.8 - - - - - - - 0.8
27/03:00am 20.3 - 19.3 94 0.6 - - - - - - - 0.8
27/02:30am 20.4 - 19.6 95 0.5 - - - - - - - 0.8
27/02:00am 20.4 - 19.4 94 0.6 - - - - - - - 0.8
27/01:30am 20.3 - 19.3 94 0.6 - - - - - - - 0.8
27/01:00am 20.3 - 18.8 91 1.0 - - - - - - - 0.8
27/12:30am 20.6 - 19.1 91 1.0 - - - - - - - 0.8
27/12:00am 20.6 - 19.1 91 1.0 - - - - - - - 0.8
 
Date/Time
EST
Temp
°C
App
Temp
°C
Dew
Point
Rel
Hum
%
Delta-T
°C
Wind Press
QNH
hPa
Press
MSL
hPa
Rain
since 9 am
mm
Dir
 
Spd
km/h
Gust
km/h
Spd
kts
Gust
kts
26/11:30pm 20.5 - 19.0 91 1.0 - - - - - - - 0.8
26/11:00pm 20.8 - 19.1 90 1.1 - - - - - - - 0.8
26/10:30pm 20.7 - 19.2 91 1.0 - - - - - - - 0.8
26/10:00pm 20.5 - 19.0 91 1.0 - - - - - - - 0.8
26/09:30pm 20.5 - 19.0 91 1.0 - - - - - - - 0.8
26/09:00pm 20.4 - 18.7 90 1.1 - - - - - - - 0.8
26/08:30pm 20.6 - 18.5 88 1.3 - - - - - - - 0.8
26/08:00pm 20.6 - 18.2 86 1.5 - - - - - - - 0.8
26/07:30pm 21.6 - 17.4 77 2.6 - - - - - - - 0.0
26/07:00pm 23.4 - 17.2 68 3.9 - - - - - - - 0.0
26/06:30pm 24.2 - 19.3 74 3.2 - - - - - - - 0.0
26/06:00pm 24.9 - 18.8 69 4.0 - - - - - - - 0.0
26/05:30pm 25.4 - 18.8 67 4.3 - - - - - - - 0.0
26/05:00pm 26.3 - 18.4 61 5.1 - - - - - - - 0.0
26/04:30pm 27.4 - 18.4 58 5.9 - - - - - - - 0.0
26/04:00pm 28.2 - 18.9 57 6.1 - - - - - - - 0.0
26/03:30pm 28.6 - 18.7 55 6.5 - - - - - - - 0.0
26/03:00pm 29.3 - 19.0 53 6.8 - - - - - - - 0.0
26/02:30pm 28.0 - 20.3 63 5.2 - - - - - - - 0.0
26/02:00pm 27.3 - 19.4 62 5.2 - - - - - - - 0.0
26/01:30pm 28.2 - 18.9 57 6.1 - - - - - - - 0.0

Other Formats:

Comma delimited format used in spreadsheet applications
http://www.bom.gov.au/fwo/IDQ60801/IDQ60801.94557.axf

JavaScript Object Notation format (JSON) in row-major order
http://www.bom.gov.au/fwo/IDQ60801/IDQ60801.94557.json